Prince Rupert — 3ETX2 — position and weather

sailwx.info

Track history (hours):
 
Tides and Currents Weather Stations Pressure Air Temp Water Temp Dewpoint Dewpoint Depression Visibility Wind Speed Wind Dir Waves Ship Positions

Prince Rupert

Last reported at 2017-Oct-09 16:22 UTC. Time now 2017-Oct-23 03:01 UTC.
Position N 30°56' E 122°51'.
Warning: this ship's position is 13 days out of date.

Length 140 m; draft 5.2 m.

Type: Cargo ship. MMSI: 372427000.

Date/timePositionNaut miles runAvg speedWind from/ knotsBaromVisibWave heightAir tempDewpointWater temp
2017-Oct-09 16:22N 30°56' E 122°51'2711.5
2017-Oct-09 14:03N 31°01' E 122°21'211.7
2017-Oct-09 13:55N 31°01' E 122°19'3 5.0
2017-Oct-09 13:20N 31°02' E 122°16'2 7.1
2017-Oct-09 13:00N 31°02' E 122°13'4 8.9
2017-Oct-09 12:30N 31°03' E 122°08'713.1
2017-Oct-09 12:00N 31°05' E 122°01'714.9
2017-Oct-09 11:30N 31°09' E 121°53'815.7
2017-Oct-09 11:00N 31°14' E 121°47'714.6
2017-Oct-09 10:31N 31°20' E 121°41'611.1
2017-Oct-09 10:01N 31°23' E 121°36'611.8
2017-Oct-09 09:30N 31°26' E 121°30'611.2
2017-Oct-09 09:01N 31°30' E 121°25'3 6.5
2017-Oct-09 08:30N 31°30' E 121°29'612.8
2017-Oct-09 08:00N 31°30' E 121°37'3 6.1
2017-Oct-09 07:30N 31°31' E 121°34'510.9
2017-Oct-09 07:01N 31°34' E 121°28'0 0.6
2017-Oct-09 06:30N 31°35' E 121°28'0 0.0
2017-Oct-09 06:00N 31°35' E 121°28'0 0.0
2017-Oct-09 05:30N 31°35' E 121°28'0 0.0
2017-Oct-09 05:00N 31°35' E 121°28'0 0.0
2017-Oct-09 04:30N 31°35' E 121°28'0 0.0
2017-Oct-09 04:00N 31°35' E 121°28'0 0.3
2017-Oct-09 03:30N 31°35' E 121°28'0 0.2
2017-Oct-09 03:00N 31°34' E 121°28'0 0.0
2017-Oct-09 02:30N 31°34' E 121°28'0 0.1
2017-Oct-09 02:00N 31°34' E 121°28'0 0.1
2017-Oct-09 01:30N 31°34' E 121°28'0 0.6
2017-Oct-09 01:00N 31°34' E 121°29'1 2.1
2017-Oct-09 00:30N 31°34' E 121°30'3 5.6
2017-Oct-08 23:56N 31°36' E 121°27'0 0.0
2017-Oct-08 23:29N 31°36' E 121°27'0 0.0
2017-Oct-08 22:59N 31°36' E 121°27'0 0.0
2017-Oct-08 22:29N 31°36' E 121°27'0 0.0
2017-Oct-08 21:56N 31°36' E 121°27'0 0.0
2017-Oct-08 21:29N 31°36' E 121°27'0 0.0
2017-Oct-08 20:59N 31°36' E 121°27'0 0.0
2017-Oct-08 20:26N 31°36' E 121°27'0 0.0
2017-Oct-08 19:59N 31°36' E 121°27'0 0.0
2017-Oct-08 19:26N 31°36' E 121°27'0 0.0
2017-Oct-08 18:56N 31°36' E 121°27'0 0.0
2017-Oct-08 18:26N 31°36' E 121°27'0 0.0
2017-Oct-08 17:59N 31°36' E 121°27'0 0.0
2017-Oct-08 17:29N 31°36' E 121°27'0 0.0
2017-Oct-08 16:59N 31°36' E 121°27'0 0.0
2017-Oct-08 16:26N 31°36' E 121°27'0 0.0
2017-Oct-08 15:59N 31°36' E 121°27'0 0.0
2017-Oct-08 15:29N 31°36' E 121°27'0 0.0
2017-Oct-08 14:59N 31°36' E 121°27'0 0.0
2017-Oct-08 14:29N 31°36' E 121°27'0 0.0
2017-Oct-08 13:59N 31°36' E 121°27'0 0.0
2017-Oct-08 13:29N 31°36' E 121°27'0 0.0
2017-Oct-08 12:53N 31°36' E 121°27'0 0.0
2017-Oct-08 12:29N 31°36' E 121°27'0 0.0
2017-Oct-08 11:56N 31°36' E 121°27'0 0.0
2017-Oct-08 11:29N 31°36' E 121°27'0 0.0
2017-Oct-08 10:59N 31°36' E 121°27'0 0.0
2017-Oct-08 10:29N 31°36' E 121°27'0 0.0
2017-Oct-08 09:56N 31°36' E 121°27'0 0.0
2017-Oct-08 09:26N 31°36' E 121°27'0 0.0
2017-Oct-08 08:56N 31°36' E 121°27'0 0.0
2017-Oct-08 08:29N 31°36' E 121°27'0 0.0
2017-Oct-08 07:59N 31°36' E 121°27'0 0.0
2017-Oct-08 07:29N 31°36' E 121°27'0 0.0
2017-Oct-08 06:59N 31°36' E 121°27'  
2017-Oct-05 02:11N 31°36' E 121°27'0 0.0
2017-Oct-05 01:59N 31°36' E 121°27'0 0.2
2017-Oct-05 01:29N 31°36' E 121°27'0 0.2
2017-Oct-05 00:59N 31°36' E 121°26'1 2.0
2017-Oct-05 00:29N 31°35' E 121°27'0 0.3
2017-Oct-04 23:59N 31°35' E 121°28'0 0.0
2017-Oct-04 23:29N 31°35' E 121°28'0 0.0
2017-Oct-04 22:59N 31°35' E 121°28'0 0.0
2017-Oct-04 22:26N 31°35' E 121°28'0 0.0
2017-Oct-04 21:59N 31°35' E 121°28'0 0.0
2017-Oct-04 21:29N 31°35' E 121°28'0 0.0
2017-Oct-04 20:59N 31°35' E 121°28'0 0.0
2017-Oct-04 20:23N 31°35' E 121°28'0 0.0
2017-Oct-04 19:59N 31°35' E 121°28'0 0.0
2017-Oct-04 19:29N 31°35' E 121°28'0 0.0
2017-Oct-04 18:59N 31°35' E 121°28'0 0.0
2017-Oct-04 18:29N 31°35' E 121°28'0 0.0
2017-Oct-04 17:59N 31°35' E 121°28'0 0.0
2017-Oct-04 17:29N 31°35' E 121°28'0 0.0
2017-Oct-04 16:59N 31°35' E 121°28'0 0.0
2017-Oct-04 16:29N 31°35' E 121°28'0 0.0
2017-Oct-04 15:59N 31°35' E 121°28'0 0.0
2017-Oct-04 15:29N 31°35' E 121°28'0 0.0
2017-Oct-04 14:53N 31°35' E 121°28'0 0.0
2017-Oct-04 14:23N 31°35' E 121°28'0 0.0
2017-Oct-04 13:56N 31°35' E 121°28'0 0.0
2017-Oct-04 13:26N 31°35' E 121°28'0 0.0
2017-Oct-04 12:53N 31°35' E 121°28'0 0.0
2017-Oct-04 12:29N 31°35' E 121°28'0 0.0
2017-Oct-04 11:59N 31°35' E 121°28'0 0.0
2017-Oct-04 11:29N 31°35' E 121°28'0 0.0
2017-Oct-04 10:59N 31°35' E 121°28'0 0.0
2017-Oct-04 10:29N 31°35' E 121°28'0 0.0
2017-Oct-04 09:59N 31°35' E 121°28'0 0.0
2017-Oct-04 09:29N 31°35' E 121°28'0 0.0
2017-Oct-04 08:59N 31°35' E 121°28'0 0.0
2017-Oct-04 08:29N 31°35' E 121°28'0 0.0
2017-Oct-04 07:59N 31°35' E 121°28'0 0.0
2017-Oct-04 07:29N 31°35' E 121°28'0 0.0
2017-Oct-04 06:59N 31°35' E 121°28'0 0.0
2017-Oct-04 06:29N 31°35' E 121°28'0 0.0
2017-Oct-04 05:59N 31°35' E 121°28'0 0.0
2017-Oct-04 05:29N 31°35' E 121°28'0 0.0
2017-Oct-04 04:53N 31°35' E 121°28'0 0.0
2017-Oct-04 04:29N 31°35' E 121°28'0 0.0
2017-Oct-04 03:59N 31°35' E 121°28'0 0.0
2017-Oct-04 03:29N 31°35' E 121°28'0 0.0
2017-Oct-04 02:59N 31°35' E 121°28'0 0.0
2017-Oct-04 02:29N 31°35' E 121°28'0 0.0
2017-Oct-04 01:59N 31°35' E 121°28'0 0.0
2017-Oct-04 01:29N 31°35' E 121°28'0 0.0
2017-Oct-04 00:59N 31°35' E 121°28'0 0.0
2017-Oct-04 00:29N 31°35' E 121°28'0 0.0
2017-Oct-03 23:59N 31°35' E 121°28'0 0.0
2017-Oct-03 23:29N 31°35' E 121°28'0 0.0
2017-Oct-03 22:59N 31°35' E 121°28'0 0.0
2017-Oct-03 22:29N 31°35' E 121°28'0 0.0
2017-Oct-03 21:59N 31°35' E 121°28'0 0.0
2017-Oct-03 21:29N 31°35' E 121°28'0 0.0
2017-Oct-03 20:59N 31°35' E 121°28'0 0.0
2017-Oct-03 20:29N 31°35' E 121°28'0 0.0
2017-Oct-03 19:59N 31°35' E 121°28'0 0.0
2017-Oct-03 19:29N 31°35' E 121°28'0 0.0
2017-Oct-03 18:59N 31°35' E 121°28'0 0.0
2017-Oct-03 18:29N 31°35' E 121°28'0 0.0
2017-Oct-03 17:59N 31°35' E 121°28'0 0.0
2017-Oct-03 17:29N 31°35' E 121°28'0 0.0
2017-Oct-03 16:59N 31°35' E 121°28'0 0.0
2017-Oct-03 16:29N 31°35' E 121°28'0 0.0
2017-Oct-03 15:59N 31°35' E 121°28'0 0.0
2017-Oct-03 15:29N 31°35' E 121°28'0 0.0
2017-Oct-03 14:59N 31°35' E 121°28'0 0.0
2017-Oct-03 13:59N 31°35' E 121°28'0 0.0
2017-Oct-03 13:29N 31°35' E 121°28'0 0.0
2017-Oct-03 12:59N 31°35' E 121°28'0 0.0
2017-Oct-03 12:29N 31°35' E 121°28'0 0.0
2017-Oct-03 11:59N 31°35' E 121°28'0 0.0
2017-Oct-03 11:29N 31°35' E 121°28'0 0.0
2017-Oct-03 10:59N 31°35' E 121°28'0 0.0
2017-Oct-03 10:29N 31°35' E 121°28'0 0.0
2017-Oct-03 09:59N 31°35' E 121°28'0 0.0
2017-Oct-03 09:29N 31°35' E 121°28'0 0.0
2017-Oct-03 08:59N 31°35' E 121°28'0 0.0
2017-Oct-03 08:29N 31°35' E 121°28'0 0.0
2017-Oct-03 07:59N 31°35' E 121°28'0 0.0
2017-Oct-03 07:23N 31°35' E 121°28'0 0.0
2017-Oct-03 06:59N 31°35' E 121°28'0 0.0
2017-Oct-03 06:29N 31°35' E 121°28'0 0.0
2017-Oct-03 05:53N 31°35' E 121°28'0 0.0
2017-Oct-03 05:29N 31°35' E 121°28'0 0.0
2017-Oct-03 04:53N 31°35' E 121°28'0 0.0
2017-Oct-03 04:29N 31°35' E 121°28'0 0.0
2017-Oct-03 03:59N 31°35' E 121°28'0 0.0
2017-Oct-03 03:26N 31°35' E 121°28'0 0.0
2017-Oct-03 02:59N 31°35' E 121°28'0 0.0
2017-Oct-03 02:29N 31°35' E 121°28'0 0.0
2017-Oct-03 01:59N 31°35' E 121°28'0 0.0
2017-Oct-03 01:29N 31°35' E 121°28'0 0.0
2017-Oct-03 00:59N 31°35' E 121°28'0 0.0
2017-Oct-03 00:29N 31°35' E 121°28'0 0.0
2017-Oct-02 23:59N 31°35' E 121°28'0 0.0
2017-Oct-02 23:29N 31°35' E 121°28'0 0.0
2017-Oct-02 22:53N 31°35' E 121°28'0 0.0
2017-Oct-02 22:29N 31°35' E 121°28'0 0.0
2017-Oct-02 21:59N 31°35' E 121°28'0 0.0
2017-Oct-02 21:17N 31°35' E 121°28'0 0.0
2017-Oct-02 20:59N 31°35' E 121°28'0 0.0
2017-Oct-02 20:29N 31°35' E 121°28'0 0.0
2017-Oct-02 19:59N 31°35' E 121°28'0 0.0
2017-Oct-02 19:29N 31°35' E 121°28'0 0.0
2017-Oct-02 18:53N 31°35' E 121°28'0 0.0
2017-Oct-02 18:29N 31°35' E 121°28'0 0.0
2017-Oct-02 17:59N 31°35' E 121°28'0 0.0
2017-Oct-02 17:29N 31°35' E 121°28'0 0.0
2017-Oct-02 16:59N 31°35' E 121°28'0 0.0
2017-Oct-02 16:26N 31°35' E 121°28'0 0.0
2017-Oct-02 15:59N 31°35' E 121°28'0 0.0
2017-Oct-02 15:29N 31°35' E 121°28'0 0.0
2017-Oct-02 14:59N 31°35' E 121°28'0 0.0
2017-Oct-02 14:29N 31°35' E 121°28'0 0.0
2017-Oct-02 13:59N 31°35' E 121°28'0 0.0
2017-Oct-02 13:29N 31°35' E 121°28'0 0.0
2017-Oct-02 12:59N 31°35' E 121°28'0 0.0
2017-Oct-02 12:29N 31°35' E 121°28'0 0.0
2017-Oct-02 11:59N 31°35' E 121°28'0 0.0
2017-Oct-02 11:29N 31°35' E 121°28'0 0.0
2017-Oct-02 10:59N 31°35' E 121°28'0 0.0
2017-Oct-02 10:29N 31°35' E 121°28'0 0.0
2017-Oct-02 09:53N 31°35' E 121°28'0 0.0
2017-Oct-02 09:23N 31°35' E 121°28'0 0.0
2017-Oct-02 08:59N 31°35' E 121°28'0 0.0
2017-Oct-02 08:29N 31°35' E 121°28'0 0.0
2017-Oct-02 07:59N 31°35' E 121°28'0 0.0
2017-Oct-02 07:29N 31°35' E 121°28'0 0.0
2017-Oct-02 06:59N 31°35' E 121°28'0 0.0
2017-Oct-02 06:29N 31°35' E 121°28'0 0.0
2017-Oct-02 05:56N 31°35' E 121°28'0 0.0
2017-Oct-02 05:29N 31°35' E 121°28'0 0.0
2017-Oct-02 04:56N 31°35' E 121°28'0 0.0
2017-Oct-02 04:29N 31°35' E 121°28'0 0.0
2017-Oct-02 03:59N 31°35' E 121°28'0 0.0
2017-Oct-02 03:29N 31°35' E 121°28'0 0.0
2017-Oct-02 02:59N 31°35' E 121°28'0 0.0
2017-Oct-02 02:29N 31°35' E 121°28'0 0.0
2017-Oct-02 01:56N 31°35' E 121°28'0 0.0
2017-Oct-02 01:29N 31°35' E 121°28'0 0.0
2017-Oct-02 00:56N 31°35' E 121°28'0 0.0
2017-Oct-02 00:29N 31°35' E 121°28'0 0.0
2017-Oct-01 23:59N 31°35' E 121°28'0 0.0
2017-Oct-01 23:29N 31°35' E 121°28'0 0.0
2017-Oct-01 22:59N 31°35' E 121°28'0 0.0
2017-Oct-01 22:29N 31°35' E 121°28'0 0.0
2017-Oct-01 21:59N 31°35' E 121°28'0 0.0
2017-Oct-01 21:29N 31°35' E 121°28'0 0.0
2017-Oct-01 20:59N 31°35' E 121°28'0 0.0
2017-Oct-01 20:29N 31°35' E 121°28'0 0.0
2017-Oct-01 19:53N 31°35' E 121°28'0 0.0
2017-Oct-01 19:29N 31°35' E 121°28'0 0.0
2017-Oct-01 18:59N 31°35' E 121°28'0 0.0
2017-Oct-01 18:29N 31°35' E 121°28'0 0.0
2017-Oct-01 17:59N 31°35' E 121°28'0 0.0
2017-Oct-01 17:29N 31°35' E 121°28'0 0.0
2017-Oct-01 16:59N 31°35' E 121°28'0 0.0
2017-Oct-01 16:29N 31°35' E 121°28'0 0.0
2017-Oct-01 15:44N 31°35' E 121°28'0 0.0
2017-Oct-01 15:23N 31°35' E 121°28'0 0.0
2017-Oct-01 14:56N 31°35' E 121°28'0 0.0
2017-Oct-01 14:29N 31°35' E 121°28'0 0.0
2017-Oct-01 13:59N 31°35' E 121°28'0 0.0
2017-Oct-01 13:29N 31°35' E 121°28'0 0.0
2017-Oct-01 12:53N 31°35' E 121°28'0 0.0
2017-Oct-01 12:29N 31°35' E 121°28'0 0.0
2017-Oct-01 11:59N 31°35' E 121°28'0 0.0
2017-Oct-01 11:29N 31°35' E 121°28'0 0.0
2017-Oct-01 10:59N 31°35' E 121°28'0 0.0
2017-Oct-01 10:17N 31°35' E 121°28'0 0.0
2017-Oct-01 09:59N 31°35' E 121°28'0 0.0
2017-Oct-01 09:29N 31°35' E 121°28'0 0.0
2017-Oct-01 08:59N 31°35' E 121°28'0 0.0
2017-Oct-01 08:29N 31°35' E 121°28'0 0.0
2017-Oct-01 07:59N 31°35' E 121°28'0 0.0
2017-Oct-01 07:29N 31°35' E 121°28'0 0.0
2017-Oct-01 06:53N 31°35' E 121°28'0 0.0
2017-Oct-01 06:23N 31°35' E 121°28'0 0.0
2017-Oct-01 05:59N 31°35' E 121°28'0 0.0
2017-Oct-01 05:20N 31°35' E 121°28'0 0.0
2017-Oct-01 05:00N 31°35' E 121°28'2 4.8
2017-Oct-01 04:31N 31°34' E 121°30'4 8.7
2017-Oct-01 04:00N 31°32' E 121°34'2 4.8
2017-Oct-01 03:30N 31°30' E 121°36'612.7
2017-Oct-01 03:00N 31°30' E 121°29'  
Track history (hours):
 
Tides and Currents Weather Stations Pressure Air Temp Water Temp Dewpoint Dewpoint Depression Visibility Wind Speed Wind Dir Waves Ship Positions

Prince Rupert

Last reported at 2017-Oct-09 16:22 UTC. Time now 2017-Oct-23 03:01 UTC.
Position N 30°56' E 122°51'.
Warning: this ship's position is 13 days out of date.

Length 140 m; draft 5.2 m.

Type: Cargo ship. MMSI: 372427000.

Date/timePositionNaut miles runAvg speedWind from/ knotsBaromVisibWave heightAir tempDewpointWater temp
2017-Oct-09 16:22N 30°56' E 122°51'2711.5
2017-Oct-09 14:03N 31°01' E 122°21'211.7
2017-Oct-09 13:55N 31°01' E 122°19'3 5.0
2017-Oct-09 13:20N 31°02' E 122°16'2 7.1
2017-Oct-09 13:00N 31°02' E 122°13'4 8.9
2017-Oct-09 12:30N 31°03' E 122°08'713.1
2017-Oct-09 12:00N 31°05' E 122°01'714.9
2017-Oct-09 11:30N 31°09' E 121°53'815.7
2017-Oct-09 11:00N 31°14' E 121°47'714.6
2017-Oct-09 10:31N 31°20' E 121°41'611.1
2017-Oct-09 10:01N 31°23' E 121°36'611.8
2017-Oct-09 09:30N 31°26' E 121°30'611.2
2017-Oct-09 09:01N 31°30' E 121°25'3 6.5
2017-Oct-09 08:30N 31°30' E 121°29'612.8
2017-Oct-09 08:00N 31°30' E 121°37'3 6.1
2017-Oct-09 07:30N 31°31' E 121°34'510.9
2017-Oct-09 07:01N 31°34' E 121°28'0 0.6
2017-Oct-09 06:30N 31°35' E 121°28'0 0.0
2017-Oct-09 06:00N 31°35' E 121°28'0 0.0
2017-Oct-09 05:30N 31°35' E 121°28'0 0.0
2017-Oct-09 05:00N 31°35' E 121°28'0 0.0
2017-Oct-09 04:30N 31°35' E 121°28'0 0.0
2017-Oct-09 04:00N 31°35' E 121°28'0 0.3
2017-Oct-09 03:30N 31°35' E 121°28'0 0.2
2017-Oct-09 03:00N 31°34' E 121°28'0 0.0
2017-Oct-09 02:30N 31°34' E 121°28'0 0.1
2017-Oct-09 02:00N 31°34' E 121°28'0 0.1
2017-Oct-09 01:30N 31°34' E 121°28'0 0.6
2017-Oct-09 01:00N 31°34' E 121°29'1 2.1
2017-Oct-09 00:30N 31°34' E 121°30'3 5.6
2017-Oct-08 23:56N 31°36' E 121°27'0 0.0
2017-Oct-08 23:29N 31°36' E 121°27'0 0.0
2017-Oct-08 22:59N 31°36' E 121°27'0 0.0
2017-Oct-08 22:29N 31°36' E 121°27'0 0.0
2017-Oct-08 21:56N 31°36' E 121°27'0 0.0
2017-Oct-08 21:29N 31°36' E 121°27'0 0.0
2017-Oct-08 20:59N 31°36' E 121°27'0 0.0
2017-Oct-08 20:26N 31°36' E 121°27'0 0.0
2017-Oct-08 19:59N 31°36' E 121°27'0 0.0
2017-Oct-08 19:26N 31°36' E 121°27'0 0.0
2017-Oct-08 18:56N 31°36' E 121°27'0 0.0
2017-Oct-08 18:26N 31°36' E 121°27'0 0.0
2017-Oct-08 17:59N 31°36' E 121°27'0 0.0
2017-Oct-08 17:29N 31°36' E 121°27'0 0.0
2017-Oct-08 16:59N 31°36' E 121°27'0 0.0
2017-Oct-08 16:26N 31°36' E 121°27'0 0.0
2017-Oct-08 15:59N 31°36' E 121°27'0 0.0
2017-Oct-08 15:29N 31°36' E 121°27'0 0.0
2017-Oct-08 14:59N 31°36' E 121°27'0 0.0
2017-Oct-08 14:29N 31°36' E 121°27'0 0.0
2017-Oct-08 13:59N 31°36' E 121°27'0 0.0
2017-Oct-08 13:29N 31°36' E 121°27'0 0.0
2017-Oct-08 12:53N 31°36' E 121°27'0 0.0
2017-Oct-08 12:29N 31°36' E 121°27'0 0.0
2017-Oct-08 11:56N 31°36' E 121°27'0 0.0
2017-Oct-08 11:29N 31°36' E 121°27'0 0.0
2017-Oct-08 10:59N 31°36' E 121°27'0 0.0
2017-Oct-08 10:29N 31°36' E 121°27'0 0.0
2017-Oct-08 09:56N 31°36' E 121°27'0 0.0
2017-Oct-08 09:26N 31°36' E 121°27'0 0.0
2017-Oct-08 08:56N 31°36' E 121°27'0 0.0
2017-Oct-08 08:29N 31°36' E 121°27'0 0.0
2017-Oct-08 07:59N 31°36' E 121°27'0 0.0
2017-Oct-08 07:29N 31°36' E 121°27'0 0.0
2017-Oct-08 06:59N 31°36' E 121°27'  
2017-Oct-05 02:11N 31°36' E 121°27'0 0.0
2017-Oct-05 01:59N 31°36' E 121°27'0 0.2
2017-Oct-05 01:29N 31°36' E 121°27'0 0.2
2017-Oct-05 00:59N 31°36' E 121°26'1 2.0
2017-Oct-05 00:29N 31°35' E 121°27'0 0.3
2017-Oct-04 23:59N 31°35' E 121°28'0 0.0
2017-Oct-04 23:29N 31°35' E 121°28'0 0.0
2017-Oct-04 22:59N 31°35' E 121°28'0 0.0
2017-Oct-04 22:26N 31°35' E 121°28'0 0.0
2017-Oct-04 21:59N 31°35' E 121°28'0 0.0
2017-Oct-04 21:29N 31°35' E 121°28'0 0.0
2017-Oct-04 20:59N 31°35' E 121°28'0 0.0
2017-Oct-04 20:23N 31°35' E 121°28'0 0.0
2017-Oct-04 19:59N 31°35' E 121°28'0 0.0
2017-Oct-04 19:29N 31°35' E 121°28'0 0.0
2017-Oct-04 18:59N 31°35' E 121°28'0 0.0
2017-Oct-04 18:29N 31°35' E 121°28'0 0.0
2017-Oct-04 17:59N 31°35' E 121°28'0 0.0
2017-Oct-04 17:29N 31°35' E 121°28'0 0.0
2017-Oct-04 16:59N 31°35' E 121°28'0 0.0
2017-Oct-04 16:29N 31°35' E 121°28'0 0.0
2017-Oct-04 15:59N 31°35' E 121°28'0 0.0
2017-Oct-04 15:29N 31°35' E 121°28'0 0.0
2017-Oct-04 14:53N 31°35' E 121°28'0 0.0
2017-Oct-04 14:23N 31°35' E 121°28'0 0.0
2017-Oct-04 13:56N 31°35' E 121°28'0 0.0
2017-Oct-04 13:26N 31°35' E 121°28'0 0.0
2017-Oct-04 12:53N 31°35' E 121°28'0 0.0
2017-Oct-04 12:29N 31°35' E 121°28'0 0.0
2017-Oct-04 11:59N 31°35' E 121°28'0 0.0
2017-Oct-04 11:29N 31°35' E 121°28'0 0.0
2017-Oct-04 10:59N 31°35' E 121°28'0 0.0
2017-Oct-04 10:29N 31°35' E 121°28'0 0.0
2017-Oct-04 09:59N 31°35' E 121°28'0 0.0
2017-Oct-04 09:29N 31°35' E 121°28'0 0.0
2017-Oct-04 08:59N 31°35' E 121°28'0 0.0
2017-Oct-04 08:29N 31°35' E 121°28'0 0.0
2017-Oct-04 07:59N 31°35' E 121°28'0 0.0
2017-Oct-04 07:29N 31°35' E 121°28'0 0.0
2017-Oct-04 06:59N 31°35' E 121°28'0 0.0
2017-Oct-04 06:29N 31°35' E 121°28'0 0.0
2017-Oct-04 05:59N 31°35' E 121°28'0 0.0
2017-Oct-04 05:29N 31°35' E 121°28'0 0.0
2017-Oct-04 04:53N 31°35' E 121°28'0 0.0
2017-Oct-04 04:29N 31°35' E 121°28'0 0.0
2017-Oct-04 03:59N 31°35' E 121°28'0 0.0
2017-Oct-04 03:29N 31°35' E 121°28'0 0.0
2017-Oct-04 02:59N 31°35' E 121°28'0 0.0
2017-Oct-04 02:29N 31°35' E 121°28'0 0.0
2017-Oct-04 01:59N 31°35' E 121°28'0 0.0
2017-Oct-04 01:29N 31°35' E 121°28'0 0.0
2017-Oct-04 00:59N 31°35' E 121°28'0 0.0
2017-Oct-04 00:29N 31°35' E 121°28'0 0.0
2017-Oct-03 23:59N 31°35' E 121°28'0 0.0
2017-Oct-03 23:29N 31°35' E 121°28'0 0.0
2017-Oct-03 22:59N 31°35' E 121°28'0 0.0
2017-Oct-03 22:29N 31°35' E 121°28'0 0.0
2017-Oct-03 21:59N 31°35' E 121°28'0 0.0
2017-Oct-03 21:29N 31°35' E 121°28'0 0.0
2017-Oct-03 20:59N 31°35' E 121°28'0 0.0
2017-Oct-03 20:29N 31°35' E 121°28'0 0.0
2017-Oct-03 19:59N 31°35' E 121°28'0 0.0
2017-Oct-03 19:29N 31°35' E 121°28'0 0.0
2017-Oct-03 18:59N 31°35' E 121°28'0 0.0
2017-Oct-03 18:29N 31°35' E 121°28'0 0.0
2017-Oct-03 17:59N 31°35' E 121°28'0 0.0
2017-Oct-03 17:29N 31°35' E 121°28'0 0.0
2017-Oct-03 16:59N 31°35' E 121°28'0 0.0
2017-Oct-03 16:29N 31°35' E 121°28'0 0.0
2017-Oct-03 15:59N 31°35' E 121°28'0 0.0
2017-Oct-03 15:29N 31°35' E 121°28'0 0.0
2017-Oct-03 14:59N 31°35' E 121°28'0 0.0
2017-Oct-03 13:59N 31°35' E 121°28'0 0.0
2017-Oct-03 13:29N 31°35' E 121°28'0 0.0
2017-Oct-03 12:59N 31°35' E 121°28'0 0.0
2017-Oct-03 12:29N 31°35' E 121°28'0 0.0
2017-Oct-03 11:59N 31°35' E 121°28'0 0.0
2017-Oct-03 11:29N 31°35' E 121°28'0 0.0
2017-Oct-03 10:59N 31°35' E 121°28'0 0.0
2017-Oct-03 10:29N 31°35' E 121°28'0 0.0
2017-Oct-03 09:59N 31°35' E 121°28'0 0.0
2017-Oct-03 09:29N 31°35' E 121°28'0 0.0
2017-Oct-03 08:59N 31°35' E 121°28'0 0.0
2017-Oct-03 08:29N 31°35' E 121°28'0 0.0
2017-Oct-03 07:59N 31°35' E 121°28'0 0.0
2017-Oct-03 07:23N 31°35' E 121°28'0 0.0
2017-Oct-03 06:59N 31°35' E 121°28'0 0.0
2017-Oct-03 06:29N 31°35' E 121°28'0 0.0
2017-Oct-03 05:53N 31°35' E 121°28'0 0.0
2017-Oct-03 05:29N 31°35' E 121°28'0 0.0
2017-Oct-03 04:53N 31°35' E 121°28'0 0.0
2017-Oct-03 04:29N 31°35' E 121°28'0 0.0
2017-Oct-03 03:59N 31°35' E 121°28'0 0.0
2017-Oct-03 03:26N 31°35' E 121°28'0 0.0
2017-Oct-03 02:59N 31°35' E 121°28'0 0.0
2017-Oct-03 02:29N 31°35' E 121°28'0 0.0
2017-Oct-03 01:59N 31°35' E 121°28'0 0.0
2017-Oct-03 01:29N 31°35' E 121°28'0 0.0
2017-Oct-03 00:59N 31°35' E 121°28'0 0.0
2017-Oct-03 00:29N 31°35' E 121°28'0 0.0
2017-Oct-02 23:59N 31°35' E 121°28'0 0.0
2017-Oct-02 23:29N 31°35' E 121°28'0 0.0
2017-Oct-02 22:53N 31°35' E 121°28'0 0.0
2017-Oct-02 22:29N 31°35' E 121°28'0 0.0
2017-Oct-02 21:59N 31°35' E 121°28'0 0.0
2017-Oct-02 21:17N 31°35' E 121°28'0 0.0
2017-Oct-02 20:59N 31°35' E 121°28'0 0.0
2017-Oct-02 20:29N 31°35' E 121°28'0 0.0
2017-Oct-02 19:59N 31°35' E 121°28'0 0.0
2017-Oct-02 19:29N 31°35' E 121°28'0 0.0
2017-Oct-02 18:53N 31°35' E 121°28'0 0.0
2017-Oct-02 18:29N 31°35' E 121°28'0 0.0
2017-Oct-02 17:59N 31°35' E 121°28'0 0.0
2017-Oct-02 17:29N 31°35' E 121°28'0 0.0
2017-Oct-02 16:59N 31°35' E 121°28'0 0.0
2017-Oct-02 16:26N 31°35' E 121°28'0 0.0
2017-Oct-02 15:59N 31°35' E 121°28'0 0.0
2017-Oct-02 15:29N 31°35' E 121°28'0 0.0
2017-Oct-02 14:59N 31°35' E 121°28'0 0.0
2017-Oct-02 14:29N 31°35' E 121°28'0 0.0
2017-Oct-02 13:59N 31°35' E 121°28'0 0.0
2017-Oct-02 13:29N 31°35' E 121°28'0 0.0
2017-Oct-02 12:59N 31°35' E 121°28'0 0.0
2017-Oct-02 12:29N 31°35' E 121°28'0 0.0
2017-Oct-02 11:59N 31°35' E 121°28'0 0.0
2017-Oct-02 11:29N 31°35' E 121°28'0 0.0
2017-Oct-02 10:59N 31°35' E 121°28'0 0.0
2017-Oct-02 10:29N 31°35' E 121°28'0 0.0
2017-Oct-02 09:53N 31°35' E 121°28'0 0.0
2017-Oct-02 09:23N 31°35' E 121°28'0 0.0
2017-Oct-02 08:59N 31°35' E 121°28'0 0.0
2017-Oct-02 08:29N 31°35' E 121°28'0 0.0
2017-Oct-02 07:59N 31°35' E 121°28'0 0.0
2017-Oct-02 07:29N 31°35' E 121°28'0 0.0
2017-Oct-02 06:59N 31°35' E 121°28'0 0.0
2017-Oct-02 06:29N 31°35' E 121°28'0 0.0
2017-Oct-02 05:56N 31°35' E 121°28'0 0.0
2017-Oct-02 05:29N 31°35' E 121°28'0 0.0
2017-Oct-02 04:56N 31°35' E 121°28'0 0.0
2017-Oct-02 04:29N 31°35' E 121°28'0 0.0
2017-Oct-02 03:59N 31°35' E 121°28'0 0.0
2017-Oct-02 03:29N 31°35' E 121°28'0 0.0
2017-Oct-02 02:59N 31°35' E 121°28'0 0.0
2017-Oct-02 02:29N 31°35' E 121°28'0 0.0
2017-Oct-02 01:56N 31°35' E 121°28'0 0.0
2017-Oct-02 01:29N 31°35' E 121°28'0 0.0
2017-Oct-02 00:56N 31°35' E 121°28'0 0.0
2017-Oct-02 00:29N 31°35' E 121°28'0 0.0
2017-Oct-01 23:59N 31°35' E 121°28'0 0.0
2017-Oct-01 23:29N 31°35' E 121°28'0 0.0
2017-Oct-01 22:59N 31°35' E 121°28'0 0.0
2017-Oct-01 22:29N 31°35' E 121°28'0 0.0
2017-Oct-01 21:59N 31°35' E 121°28'0 0.0
2017-Oct-01 21:29N 31°35' E 121°28'0 0.0
2017-Oct-01 20:59N 31°35' E 121°28'0 0.0
2017-Oct-01 20:29N 31°35' E 121°28'0 0.0
2017-Oct-01 19:53N 31°35' E 121°28'0 0.0
2017-Oct-01 19:29N 31°35' E 121°28'0 0.0
2017-Oct-01 18:59N 31°35' E 121°28'0 0.0
2017-Oct-01 18:29N 31°35' E 121°28'0 0.0
2017-Oct-01 17:59N 31°35' E 121°28'0 0.0
2017-Oct-01 17:29N 31°35' E 121°28'0 0.0
2017-Oct-01 16:59N 31°35' E 121°28'0 0.0
2017-Oct-01 16:29N 31°35' E 121°28'0 0.0
2017-Oct-01 15:44N 31°35' E 121°28'0 0.0
2017-Oct-01 15:23N 31°35' E 121°28'0 0.0
2017-Oct-01 14:56N 31°35' E 121°28'0 0.0
2017-Oct-01 14:29N 31°35' E 121°28'0 0.0
2017-Oct-01 13:59N 31°35' E 121°28'0 0.0
2017-Oct-01 13:29N 31°35' E 121°28'0 0.0
2017-Oct-01 12:53N 31°35' E 121°28'0 0.0
2017-Oct-01 12:29N 31°35' E 121°28'0 0.0
2017-Oct-01 11:59N 31°35' E 121°28'0 0.0
2017-Oct-01 11:29N 31°35' E 121°28'0 0.0
2017-Oct-01 10:59N 31°35' E 121°28'0 0.0
2017-Oct-01 10:17N 31°35' E 121°28'0 0.0
2017-Oct-01 09:59N 31°35' E 121°28'0 0.0
2017-Oct-01 09:29N 31°35' E 121°28'0 0.0
2017-Oct-01 08:59N 31°35' E 121°28'0 0.0
2017-Oct-01 08:29N 31°35' E 121°28'0 0.0
2017-Oct-01 07:59N 31°35' E 121°28'0 0.0
2017-Oct-01 07:29N 31°35' E 121°28'0 0.0
2017-Oct-01 06:53N 31°35' E 121°28'0 0.0
2017-Oct-01 06:23N 31°35' E 121°28'0 0.0
2017-Oct-01 05:59N 31°35' E 121°28'0 0.0
2017-Oct-01 05:20N 31°35' E 121°28'0 0.0
2017-Oct-01 05:00N 31°35' E 121°28'2 4.8
2017-Oct-01 04:31N 31°34' E 121°30'4 8.7
2017-Oct-01 04:00N 31°32' E 121°34'2 4.8
2017-Oct-01 03:30N 31°30' E 121°36'612.7
2017-Oct-01 03:00N 31°30' E 121°29'  

Dump ship's entire track history